sensor_id;sensor_type;location;lat;lon;timestamp;P1;durP1;ratioP1;P2;durP2;ratioP2
72422;SDS011;60413;55.658;37.498;2022-09-30T00:01:47;12.07;;;5.65;;
72422;SDS011;60413;55.658;37.498;2022-09-30T00:04:26;13.80;;;5.80;;
72422;SDS011;60413;55.658;37.498;2022-09-30T00:06:52;11.20;;;5.47;;
72422;SDS011;60413;55.658;37.498;2022-09-30T00:09:18;10.98;;;5.28;;
72422;SDS011;60413;55.658;37.498;2022-09-30T00:11:45;12.68;;;6.22;;
72422;SDS011;60413;55.658;37.498;2022-09-30T00:14:21;9.63;;;4.97;;
72422;SDS011;60413;55.658;37.498;2022-09-30T00:16:48;7.95;;;5.03;;
72422;SDS011;60413;55.658;37.498;2022-09-30T00:19:14;10.85;;;5.47;;
72422;SDS011;60413;55.658;37.498;2022-09-30T00:21:40;11.57;;;5.05;;
72422;SDS011;60413;55.658;37.498;2022-09-30T00:24:06;10.52;;;5.38;;
72422;SDS011;60413;55.658;37.498;2022-09-30T00:26:32;11.23;;;5.50;;
72422;SDS011;60413;55.658;37.498;2022-09-30T00:28:59;12.55;;;5.78;;
72422;SDS011;60413;55.658;37.498;2022-09-30T00:31:27;11.02;;;5.38;;
72422;SDS011;60413;55.658;37.498;2022-09-30T00:33:58;9.32;;;5.43;;
72422;SDS011;60413;55.658;37.498;2022-09-30T00:36:40;11.35;;;5.30;;
72422;SDS011;60413;55.658;37.498;2022-09-30T00:41:40;11.98;;;5.75;;
72422;SDS011;60413;55.658;37.498;2022-09-30T00:49:52;13.68;;;6.07;;
72422;SDS011;60413;55.658;37.498;2022-09-30T00:52:21;12.88;;;6.00;;
72422;SDS011;60413;55.658;37.498;2022-09-30T00:54:47;12.57;;;5.95;;
72422;SDS011;60413;55.658;37.498;2022-09-30T00:57:13;10.13;;;5.20;;
72422;SDS011;60413;55.658;37.498;2022-09-30T00:59:40;13.70;;;6.00;;
72422;SDS011;60413;55.658;37.498;2022-09-30T01:02:11;9.93;;;5.30;;
72422;SDS011;60413;55.658;37.498;2022-09-30T01:04:38;10.30;;;5.57;;
72422;SDS011;60413;55.658;37.498;2022-09-30T01:07:07;11.43;;;5.90;;
72422;SDS011;60413;55.658;37.498;2022-09-30T01:09:35;10.75;;;5.20;;
72422;SDS011;60413;55.658;37.498;2022-09-30T01:12:06;7.45;;;4.22;;
72422;SDS011;60413;55.658;37.498;2022-09-30T01:14:40;9.73;;;4.88;;
72422;SDS011;60413;55.658;37.498;2022-09-30T01:22:29;9.20;;;5.20;;
72422;SDS011;60413;55.658;37.498;2022-09-30T01:27:44;9.48;;;4.70;;
72422;SDS011;60413;55.658;37.498;2022-09-30T01:30:21;10.32;;;5.18;;
72422;SDS011;60413;55.658;37.498;2022-09-30T01:41:40;10.80;;;5.93;;
72422;SDS011;60413;55.658;37.498;2022-09-30T01:44:16;9.80;;;5.30;;
72422;SDS011;60413;55.658;37.498;2022-09-30T01:47:00;10.57;;;4.90;;
72422;SDS011;60413;55.658;37.498;2022-09-30T01:49:38;11.23;;;5.60;;
72422;SDS011;60413;55.658;37.498;2022-09-30T01:57:32;9.48;;;5.32;;
72422;SDS011;60413;55.658;37.498;2022-09-30T02:00:03;15.43;;;6.60;;
72422;SDS011;60413;55.658;37.498;2022-09-30T02:02:39;11.80;;;5.82;;
72422;SDS011;60413;55.658;37.498;2022-09-30T02:10:56;12.23;;;5.90;;
72422;SDS011;60413;55.658;37.498;2022-09-30T02:13:29;14.07;;;6.40;;
72422;SDS011;60413;55.658;37.498;2022-09-30T02:16:03;12.57;;;6.18;;
72422;SDS011;60413;55.658;37.498;2022-09-30T02:18:41;16.02;;;6.82;;
72422;SDS011;60413;55.658;37.498;2022-09-30T02:21:13;13.88;;;6.63;;
72422;SDS011;60413;55.658;37.498;2022-09-30T02:23:42;15.77;;;8.00;;
72422;SDS011;60413;55.658;37.498;2022-09-30T02:28:41;18.17;;;6.57;;
72422;SDS011;60413;55.658;37.498;2022-09-30T02:31:13;13.18;;;6.50;;
72422;SDS011;60413;55.658;37.498;2022-09-30T02:33:52;13.25;;;6.95;;
72422;SDS011;60413;55.658;37.498;2022-09-30T02:36:34;10.98;;;5.53;;
72422;SDS011;60413;55.658;37.498;2022-09-30T02:39:36;11.60;;;6.28;;
72422;SDS011;60413;55.658;37.498;2022-09-30T02:42:13;18.27;;;7.05;;
72422;SDS011;60413;55.658;37.498;2022-09-30T02:44:45;11.45;;;7.15;;
72422;SDS011;60413;55.658;37.498;2022-09-30T02:50:07;10.48;;;6.18;;
72422;SDS011;60413;55.658;37.498;2022-09-30T02:58:16;17.30;;;6.30;;
72422;SDS011;60413;55.658;37.498;2022-09-30T03:00:46;16.13;;;6.28;;
72422;SDS011;60413;55.658;37.498;2022-09-30T03:05:38;12.45;;;5.90;;
72422;SDS011;60413;55.658;37.498;2022-09-30T03:08:04;12.98;;;6.15;;
72422;SDS011;60413;55.658;37.498;2022-09-30T03:10:31;11.55;;;6.05;;
72422;SDS011;60413;55.658;37.498;2022-09-30T03:22:29;12.05;;;6.78;;
72422;SDS011;60413;55.658;37.498;2022-09-30T03:27:50;12.07;;;5.70;;
72422;SDS011;60413;55.658;37.498;2022-09-30T03:30:18;11.95;;;6.13;;
72422;SDS011;60413;55.658;37.498;2022-09-30T03:36:10;13.73;;;5.85;;
72422;SDS011;60413;55.658;37.498;2022-09-30T03:38:38;12.02;;;5.88;;
72422;SDS011;60413;55.658;37.498;2022-09-30T03:44:21;10.23;;;6.00;;
72422;SDS011;60413;55.658;37.498;2022-09-30T03:46:58;12.18;;;5.60;;
72422;SDS011;60413;55.658;37.498;2022-09-30T03:49:31;11.75;;;5.95;;
72422;SDS011;60413;55.658;37.498;2022-09-30T03:52:05;10.82;;;5.95;;
72422;SDS011;60413;55.658;37.498;2022-09-30T03:54:33;12.07;;;6.30;;
72422;SDS011;60413;55.658;37.498;2022-09-30T03:57:03;11.82;;;6.25;;
72422;SDS011;60413;55.658;37.498;2022-09-30T03:59:29;11.82;;;6.20;;
72422;SDS011;60413;55.658;37.498;2022-09-30T04:01:55;12.15;;;5.18;;
72422;SDS011;60413;55.658;37.498;2022-09-30T04:04:24;10.35;;;5.72;;
72422;SDS011;60413;55.658;37.498;2022-09-30T04:06:50;11.98;;;5.30;;
72422;SDS011;60413;55.658;37.498;2022-09-30T04:09:16;12.18;;;5.18;;
72422;SDS011;60413;55.658;37.498;2022-09-30T04:11:42;9.95;;;5.07;;
72422;SDS011;60413;55.658;37.498;2022-09-30T04:14:08;9.82;;;5.32;;
72422;SDS011;60413;55.658;37.498;2022-09-30T04:16:34;9.13;;;4.97;;
72422;SDS011;60413;55.658;37.498;2022-09-30T04:19:00;9.35;;;5.45;;
72422;SDS011;60413;55.658;37.498;2022-09-30T04:21:26;9.82;;;5.20;;
72422;SDS011;60413;55.658;37.498;2022-09-30T04:23:55;9.50;;;5.35;;
72422;SDS011;60413;55.658;37.498;2022-09-30T04:26:21;15.02;;;5.60;;
72422;SDS011;60413;55.658;37.498;2022-09-30T04:28:47;8.32;;;3.95;;
72422;SDS011;60413;55.658;37.498;2022-09-30T04:31:13;15.30;;;7.72;;
72422;SDS011;60413;55.658;37.498;2022-09-30T04:33:41;11.60;;;5.85;;
72422;SDS011;60413;55.658;37.498;2022-09-30T04:36:09;10.02;;;4.93;;
72422;SDS011;60413;55.658;37.498;2022-09-30T04:38:35;10.07;;;4.97;;
72422;SDS011;60413;55.658;37.498;2022-09-30T04:41:02;8.02;;;4.75;;
72422;SDS011;60413;55.658;37.498;2022-09-30T04:43:29;8.93;;;5.13;;
72422;SDS011;60413;55.658;37.498;2022-09-30T04:45:56;11.32;;;5.70;;
72422;SDS011;60413;55.658;37.498;2022-09-30T04:48:22;9.85;;;4.88;;
72422;SDS011;60413;55.658;37.498;2022-09-30T04:50:49;8.35;;;4.50;;
72422;SDS011;60413;55.658;37.498;2022-09-30T04:53:15;9.00;;;4.75;;
72422;SDS011;60413;55.658;37.498;2022-09-30T04:55:44;9.10;;;5.40;;
72422;SDS011;60413;55.658;37.498;2022-09-30T04:58:10;12.35;;;5.45;;
72422;SDS011;60413;55.658;37.498;2022-09-30T05:00:37;10.77;;;5.28;;
72422;SDS011;60413;55.658;37.498;2022-09-30T05:03:03;9.75;;;5.50;;
72422;SDS011;60413;55.658;37.498;2022-09-30T05:05:30;11.20;;;5.32;;
72422;SDS011;60413;55.658;37.498;2022-09-30T05:08:03;12.45;;;5.30;;
72422;SDS011;60413;55.658;37.498;2022-09-30T05:10:29;9.85;;;5.55;;
72422;SDS011;60413;55.658;37.498;2022-09-30T05:12:55;15.50;;;5.05;;
72422;SDS011;60413;55.658;37.498;2022-09-30T05:15:25;10.38;;;5.13;;
72422;SDS011;60413;55.658;37.498;2022-09-30T05:17:51;10.93;;;4.72;;
72422;SDS011;60413;55.658;37.498;2022-09-30T05:20:17;9.48;;;5.40;;
72422;SDS011;60413;55.658;37.498;2022-09-30T05:22:44;9.73;;;4.20;;
72422;SDS011;60413;55.658;37.498;2022-09-30T05:25:10;12.05;;;5.40;;
72422;SDS011;60413;55.658;37.498;2022-09-30T05:27:36;11.50;;;5.63;;
72422;SDS011;60413;55.658;37.498;2022-09-30T05:30:02;8.70;;;5.00;;
72422;SDS011;60413;55.658;37.498;2022-09-30T05:32:29;8.65;;;4.93;;
72422;SDS011;60413;55.658;37.498;2022-09-30T05:34:55;12.75;;;5.40;;
72422;SDS011;60413;55.658;37.498;2022-09-30T05:37:21;8.85;;;4.93;;
72422;SDS011;60413;55.658;37.498;2022-09-30T05:39:47;12.68;;;5.65;;
72422;SDS011;60413;55.658;37.498;2022-09-30T05:42:13;9.65;;;5.03;;
72422;SDS011;60413;55.658;37.498;2022-09-30T05:44:39;13.32;;;4.57;;
72422;SDS011;60413;55.658;37.498;2022-09-30T05:47:05;11.50;;;4.57;;
72422;SDS011;60413;55.658;37.498;2022-09-30T05:49:30;11.60;;;4.60;;
72422;SDS011;60413;55.658;37.498;2022-09-30T05:51:58;10.85;;;4.97;;
72422;SDS011;60413;55.658;37.498;2022-09-30T05:54:25;13.55;;;6.03;;
72422;SDS011;60413;55.658;37.498;2022-09-30T05:56:50;10.55;;;5.32;;
72422;SDS011;60413;55.658;37.498;2022-09-30T05:59:17;8.90;;;4.68;;
72422;SDS011;60413;55.658;37.498;2022-09-30T06:01:44;9.23;;;5.45;;
72422;SDS011;60413;55.658;37.498;2022-09-30T06:04:10;10.35;;;5.30;;
72422;SDS011;60413;55.658;37.498;2022-09-30T06:06:36;12.30;;;5.50;;
72422;SDS011;60413;55.658;37.498;2022-09-30T06:09:03;10.48;;;5.68;;
72422;SDS011;60413;55.658;37.498;2022-09-30T06:11:29;11.27;;;5.60;;
72422;SDS011;60413;55.658;37.498;2022-09-30T06:13:56;12.73;;;5.53;;
72422;SDS011;60413;55.658;37.498;2022-09-30T06:16:21;11.73;;;6.18;;
72422;SDS011;60413;55.658;37.498;2022-09-30T06:18:48;12.68;;;6.07;;
72422;SDS011;60413;55.658;37.498;2022-09-30T06:21:14;9.50;;;4.97;;
72422;SDS011;60413;55.658;37.498;2022-09-30T06:23:41;12.45;;;5.82;;
72422;SDS011;60413;55.658;37.498;2022-09-30T06:26:08;9.25;;;4.95;;
72422;SDS011;60413;55.658;37.498;2022-09-30T06:28:36;12.02;;;5.88;;
72422;SDS011;60413;55.658;37.498;2022-09-30T06:31:02;10.60;;;5.35;;
72422;SDS011;60413;55.658;37.498;2022-09-30T06:33:29;12.52;;;5.57;;
72422;SDS011;60413;55.658;37.498;2022-09-30T06:35:56;10.35;;;5.82;;
72422;SDS011;60413;55.658;37.498;2022-09-30T06:38:22;11.90;;;6.35;;
72422;SDS011;60413;55.658;37.498;2022-09-30T06:40:48;14.40;;;5.68;;
72422;SDS011;60413;55.658;37.498;2022-09-30T06:43:17;24.15;;;6.30;;
72422;SDS011;60413;55.658;37.498;2022-09-30T06:45:46;12.52;;;5.43;;
72422;SDS011;60413;55.658;37.498;2022-09-30T06:48:15;8.73;;;5.07;;
72422;SDS011;60413;55.658;37.498;2022-09-30T06:50:43;11.90;;;5.90;;
72422;SDS011;60413;55.658;37.498;2022-09-30T06:53:10;13.15;;;5.80;;
72422;SDS011;60413;55.658;37.498;2022-09-30T06:55:37;13.88;;;5.45;;
72422;SDS011;60413;55.658;37.498;2022-09-30T06:58:05;13.10;;;5.70;;
72422;SDS011;60413;55.658;37.498;2022-09-30T07:00:34;11.95;;;5.55;;
72422;SDS011;60413;55.658;37.498;2022-09-30T07:03:01;11.35;;;5.70;;
72422;SDS011;60413;55.658;37.498;2022-09-30T07:05:27;10.95;;;5.57;;
72422;SDS011;60413;55.658;37.498;2022-09-30T07:07:53;7.45;;;4.88;;
72422;SDS011;60413;55.658;37.498;2022-09-30T07:10:20;12.23;;;5.90;;
72422;SDS011;60413;55.658;37.498;2022-09-30T07:12:50;11.32;;;6.20;;
72422;SDS011;60413;55.658;37.498;2022-09-30T07:15:17;13.40;;;5.18;;
72422;SDS011;60413;55.658;37.498;2022-09-30T07:17:52;11.85;;;6.25;;
72422;SDS011;60413;55.658;37.498;2022-09-30T07:20:21;17.95;;;6.38;;
72422;SDS011;60413;55.658;37.498;2022-09-30T07:22:48;10.50;;;5.40;;
72422;SDS011;60413;55.658;37.498;2022-09-30T07:25:14;12.35;;;5.63;;
72422;SDS011;60413;55.658;37.498;2022-09-30T07:27:41;14.55;;;6.82;;
72422;SDS011;60413;55.658;37.498;2022-09-30T07:30:09;17.45;;;6.65;;
72422;SDS011;60413;55.658;37.498;2022-09-30T07:32:35;17.83;;;7.05;;
72422;SDS011;60413;55.658;37.498;2022-09-30T07:35:01;15.82;;;7.00;;
72422;SDS011;60413;55.658;37.498;2022-09-30T07:37:28;11.27;;;6.95;;
72422;SDS011;60413;55.658;37.498;2022-09-30T07:40:00;15.07;;;6.90;;
72422;SDS011;60413;55.658;37.498;2022-09-30T07:42:30;15.30;;;7.32;;
72422;SDS011;60413;55.658;37.498;2022-09-30T07:44:57;17.35;;;7.53;;
72422;SDS011;60413;55.658;37.498;2022-09-30T07:47:25;18.95;;;7.93;;
72422;SDS011;60413;55.658;37.498;2022-09-30T07:49:51;19.20;;;8.18;;
72422;SDS011;60413;55.658;37.498;2022-09-30T07:52:17;16.38;;;7.50;;
72422;SDS011;60413;55.658;37.498;2022-09-30T07:54:44;15.20;;;7.28;;
72422;SDS011;60413;55.658;37.498;2022-09-30T07:57:10;18.13;;;8.25;;
72422;SDS011;60413;55.658;37.498;2022-09-30T07:59:37;15.23;;;7.97;;
72422;SDS011;60413;55.658;37.498;2022-09-30T08:02:05;15.45;;;7.65;;
72422;SDS011;60413;55.658;37.498;2022-09-30T08:04:33;13.63;;;8.38;;
72422;SDS011;60413;55.658;37.498;2022-09-30T08:07:01;16.92;;;8.48;;
72422;SDS011;60413;55.658;37.498;2022-09-30T08:09:29;17.83;;;10.90;;
72422;SDS011;60413;55.658;37.498;2022-09-30T08:11:55;14.73;;;7.93;;
72422;SDS011;60413;55.658;37.498;2022-09-30T08:14:24;15.90;;;6.75;;
72422;SDS011;60413;55.658;37.498;2022-09-30T08:16:52;16.13;;;8.77;;
72422;SDS011;60413;55.658;37.498;2022-09-30T08:19:20;18.20;;;8.48;;
72422;SDS011;60413;55.658;37.498;2022-09-30T08:21:48;13.60;;;7.90;;
72422;SDS011;60413;55.658;37.498;2022-09-30T08:24:15;13.23;;;7.90;;
72422;SDS011;60413;55.658;37.498;2022-09-30T08:26:42;16.80;;;7.45;;
72422;SDS011;60413;55.658;37.498;2022-09-30T08:29:08;17.45;;;8.27;;
72422;SDS011;60413;55.658;37.498;2022-09-30T08:31:39;20.25;;;8.10;;
72422;SDS011;60413;55.658;37.498;2022-09-30T08:34:05;19.60;;;7.55;;
72422;SDS011;60413;55.658;37.498;2022-09-30T08:36:31;21.60;;;8.63;;
72422;SDS011;60413;55.658;37.498;2022-09-30T08:38:57;17.13;;;7.57;;
72422;SDS011;60413;55.658;37.498;2022-09-30T08:47:09;16.98;;;8.70;;
72422;SDS011;60413;55.658;37.498;2022-09-30T08:50:03;16.27;;;8.25;;
72422;SDS011;60413;55.658;37.498;2022-09-30T08:52:33;14.75;;;7.30;;
72422;SDS011;60413;55.658;37.498;2022-09-30T08:55:03;20.77;;;8.32;;
72422;SDS011;60413;55.658;37.498;2022-09-30T08:57:33;16.08;;;8.70;;
72422;SDS011;60413;55.658;37.498;2022-09-30T09:00:06;18.63;;;8.43;;
72422;SDS011;60413;55.658;37.498;2022-09-30T09:02:49;14.32;;;7.90;;
72422;SDS011;60413;55.658;37.498;2022-09-30T09:05:23;18.80;;;9.13;;
72422;SDS011;60413;55.658;37.498;2022-09-30T09:14:28;17.17;;;9.02;;
72422;SDS011;60413;55.658;37.498;2022-09-30T09:21:34;17.00;;;8.52;;
72422;SDS011;60413;55.658;37.498;2022-09-30T09:24:05;14.80;;;8.57;;
72422;SDS011;60413;55.658;37.498;2022-09-30T09:27:11;23.67;;;9.07;;
72422;SDS011;60413;55.658;37.498;2022-09-30T09:30:09;19.27;;;9.18;;
72422;SDS011;60413;55.658;37.498;2022-09-30T09:36:34;17.52;;;9.15;;
72422;SDS011;60413;55.658;37.498;2022-09-30T09:39:09;18.02;;;9.15;;
72422;SDS011;60413;55.658;37.498;2022-09-30T09:41:58;21.50;;;9.93;;
72422;SDS011;60413;55.658;37.498;2022-09-30T09:44:51;24.58;;;10.25;;
72422;SDS011;60413;55.658;37.498;2022-09-30T09:47:24;26.00;;;10.02;;
72422;SDS011;60413;55.658;37.498;2022-09-30T09:49:57;18.95;;;9.68;;
72422;SDS011;60413;55.658;37.498;2022-09-30T09:55:04;17.23;;;9.07;;
72422;SDS011;60413;55.658;37.498;2022-09-30T09:57:30;17.25;;;8.45;;
72422;SDS011;60413;55.658;37.498;2022-09-30T10:00:05;23.83;;;11.40;;
72422;SDS011;60413;55.658;37.498;2022-09-30T10:03:14;21.73;;;10.07;;
72422;SDS011;60413;55.658;37.498;2022-09-30T10:06:05;20.38;;;9.07;;
72422;SDS011;60413;55.658;37.498;2022-09-30T10:08:53;14.15;;;8.15;;
72422;SDS011;60413;55.658;37.498;2022-09-30T10:11:24;19.33;;;8.10;;
72422;SDS011;60413;55.658;37.498;2022-09-30T10:13:53;17.30;;;8.93;;
72422;SDS011;60413;55.658;37.498;2022-09-30T10:16:34;18.30;;;10.18;;
72422;SDS011;60413;55.658;37.498;2022-09-30T10:19:02;17.00;;;9.50;;
72422;SDS011;60413;55.658;37.498;2022-09-30T10:21:47;18.92;;;9.90;;
72422;SDS011;60413;55.658;37.498;2022-09-30T10:24:25;19.33;;;9.60;;
72422;SDS011;60413;55.658;37.498;2022-09-30T10:26:56;16.27;;;9.45;;
72422;SDS011;60413;55.658;37.498;2022-09-30T10:29:25;17.55;;;10.45;;
72422;SDS011;60413;55.658;37.498;2022-09-30T10:32:05;17.90;;;9.05;;
72422;SDS011;60413;55.658;37.498;2022-09-30T10:34:37;18.55;;;9.55;;
72422;SDS011;60413;55.658;37.498;2022-09-30T10:37:14;18.85;;;8.02;;
72422;SDS011;60413;55.658;37.498;2022-09-30T10:39:56;18.73;;;8.82;;
72422;SDS011;60413;55.658;37.498;2022-09-30T10:42:27;16.27;;;9.98;;
72422;SDS011;60413;55.658;37.498;2022-09-30T10:44:57;20.35;;;10.32;;
72422;SDS011;60413;55.658;37.498;2022-09-30T10:47:45;19.30;;;9.88;;
72422;SDS011;60413;55.658;37.498;2022-09-30T10:50:14;18.75;;;9.75;;
72422;SDS011;60413;55.658;37.498;2022-09-30T10:52:51;16.33;;;9.30;;
72422;SDS011;60413;55.658;37.498;2022-09-30T10:57:53;16.92;;;8.40;;
72422;SDS011;60413;55.658;37.498;2022-09-30T11:00:25;17.55;;;9.95;;
72422;SDS011;60413;55.658;37.498;2022-09-30T11:05:33;16.73;;;8.90;;
72422;SDS011;60413;55.658;37.498;2022-09-30T11:10:52;16.15;;;8.90;;
72422;SDS011;60413;55.658;37.498;2022-09-30T11:13:53;16.92;;;8.93;;
72422;SDS011;60413;55.658;37.498;2022-09-30T11:19:35;18.65;;;8.00;;
72422;SDS011;60413;55.658;37.498;2022-09-30T11:24:51;16.60;;;8.65;;
72422;SDS011;60413;55.658;37.498;2022-09-30T11:30:20;14.18;;;8.88;;
72422;SDS011;60413;55.658;37.498;2022-09-30T11:32:59;18.10;;;9.00;;
72422;SDS011;60413;55.658;37.498;2022-09-30T11:38:19;15.35;;;8.35;;
72422;SDS011;60413;55.658;37.498;2022-09-30T11:43:41;16.48;;;8.07;;
72422;SDS011;60413;55.658;37.498;2022-09-30T11:46:24;18.17;;;8.77;;
72422;SDS011;60413;55.658;37.498;2022-09-30T11:57:37;15.98;;;8.88;;
72422;SDS011;60413;55.658;37.498;2022-09-30T12:00:08;20.10;;;9.55;;
72422;SDS011;60413;55.658;37.498;2022-09-30T12:02:49;24.52;;;9.88;;
72422;SDS011;60413;55.658;37.498;2022-09-30T12:08:14;20.15;;;9.65;;
72422;SDS011;60413;55.658;37.498;2022-09-30T12:10:43;16.08;;;8.90;;
72422;SDS011;60413;55.658;37.498;2022-09-30T12:13:19;15.95;;;8.93;;
72422;SDS011;60413;55.658;37.498;2022-09-30T12:15:49;13.82;;;9.07;;
72422;SDS011;60413;55.658;37.498;2022-09-30T12:18:41;19.13;;;9.52;;
72422;SDS011;60413;55.658;37.498;2022-09-30T12:21:16;13.57;;;8.27;;
72422;SDS011;60413;55.658;37.498;2022-09-30T12:23:52;15.85;;;7.70;;
72422;SDS011;60413;55.658;37.498;2022-09-30T12:26:23;16.80;;;8.57;;
72422;SDS011;60413;55.658;37.498;2022-09-30T12:47:02;23.80;;;10.00;;
72422;SDS011;60413;55.658;37.498;2022-09-30T12:49:55;19.67;;;10.15;;
72422;SDS011;60413;55.658;37.498;2022-09-30T12:52:35;19.60;;;9.82;;
72422;SDS011;60413;55.658;37.498;2022-09-30T12:55:36;19.50;;;10.38;;
72422;SDS011;60413;55.658;37.498;2022-09-30T12:58:02;21.48;;;10.13;;
72422;SDS011;60413;55.658;37.498;2022-09-30T13:00:31;18.50;;;10.32;;
72422;SDS011;60413;55.658;37.498;2022-09-30T13:03:08;16.50;;;9.43;;
72422;SDS011;60413;55.658;37.498;2022-09-30T13:05:52;17.60;;;9.23;;
72422;SDS011;60413;55.658;37.498;2022-09-30T13:08:35;15.82;;;10.13;;
72422;SDS011;60413;55.658;37.498;2022-09-30T13:19:43;22.95;;;9.60;;
72422;SDS011;60413;55.658;37.498;2022-09-30T13:29:58;23.08;;;8.88;;
72422;SDS011;60413;55.658;37.498;2022-09-30T13:40:55;20.33;;;10.05;;
72422;SDS011;60413;55.658;37.498;2022-09-30T13:46:03;17.38;;;10.57;;
72422;SDS011;60413;55.658;37.498;2022-09-30T13:48:37;19.27;;;10.65;;
72422;SDS011;60413;55.658;37.498;2022-09-30T13:51:10;19.23;;;11.23;;
72422;SDS011;60413;55.658;37.498;2022-09-30T13:53:50;23.02;;;10.48;;
72422;SDS011;60413;55.658;37.498;2022-09-30T13:56:24;22.92;;;11.15;;
72422;SDS011;60413;55.658;37.498;2022-09-30T14:07:44;21.75;;;10.75;;
72422;SDS011;60413;55.658;37.498;2022-09-30T14:13:06;21.98;;;11.32;;
72422;SDS011;60413;55.658;37.498;2022-09-30T14:32:12;20.02;;;9.40;;
72422;SDS011;60413;55.658;37.498;2022-09-30T14:37:25;18.75;;;10.55;;
72422;SDS011;60413;55.658;37.498;2022-09-30T14:39:53;19.65;;;10.45;;
72422;SDS011;60413;55.658;37.498;2022-09-30T14:42:28;17.17;;;9.18;;
72422;SDS011;60413;55.658;37.498;2022-09-30T14:44:57;30.63;;;16.00;;
72422;SDS011;60413;55.658;37.498;2022-09-30T14:47:32;20.13;;;11.77;;
72422;SDS011;60413;55.658;37.498;2022-09-30T14:50:07;18.90;;;11.57;;
72422;SDS011;60413;55.658;37.498;2022-09-30T14:52:42;26.42;;;11.57;;
72422;SDS011;60413;55.658;37.498;2022-09-30T14:55:16;19.60;;;11.02;;
72422;SDS011;60413;55.658;37.498;2022-09-30T14:57:44;22.40;;;11.20;;
72422;SDS011;60413;55.658;37.498;2022-09-30T15:00:19;23.08;;;11.65;;
72422;SDS011;60413;55.658;37.498;2022-09-30T15:02:51;23.15;;;11.30;;
72422;SDS011;60413;55.658;37.498;2022-09-30T15:05:18;24.88;;;12.00;;
72422;SDS011;60413;55.658;37.498;2022-09-30T15:07:48;27.02;;;13.30;;
72422;SDS011;60413;55.658;37.498;2022-09-30T15:10:16;22.70;;;12.45;;
72422;SDS011;60413;55.658;37.498;2022-09-30T15:12:47;20.13;;;11.25;;
72422;SDS011;60413;55.658;37.498;2022-09-30T15:15:25;17.88;;;10.38;;
72422;SDS011;60413;55.658;37.498;2022-09-30T15:17:58;20.88;;;11.88;;
72422;SDS011;60413;55.658;37.498;2022-09-30T15:20:29;21.77;;;11.63;;
72422;SDS011;60413;55.658;37.498;2022-09-30T15:25:51;23.98;;;12.77;;
72422;SDS011;60413;55.658;37.498;2022-09-30T15:28:22;21.90;;;11.45;;
72422;SDS011;60413;55.658;37.498;2022-09-30T15:30:50;24.05;;;11.68;;
72422;SDS011;60413;55.658;37.498;2022-09-30T15:33:27;19.50;;;10.15;;
72422;SDS011;60413;55.658;37.498;2022-09-30T15:36:00;23.98;;;13.20;;
72422;SDS011;60413;55.658;37.498;2022-09-30T15:38:33;22.40;;;12.32;;
72422;SDS011;60413;55.658;37.498;2022-09-30T15:41:08;25.17;;;13.40;;
72422;SDS011;60413;55.658;37.498;2022-09-30T15:43:40;32.92;;;17.70;;
72422;SDS011;60413;55.658;37.498;2022-09-30T15:46:19;25.48;;;15.00;;
72422;SDS011;60413;55.658;37.498;2022-09-30T15:48:58;29.25;;;14.00;;
72422;SDS011;60413;55.658;37.498;2022-09-30T15:51:34;28.27;;;15.13;;
72422;SDS011;60413;55.658;37.498;2022-09-30T15:56:43;32.28;;;14.70;;
72422;SDS011;60413;55.658;37.498;2022-09-30T15:59:13;28.38;;;15.68;;
72422;SDS011;60413;55.658;37.498;2022-09-30T16:01:40;29.65;;;15.85;;
72422;SDS011;60413;55.658;37.498;2022-09-30T16:07:06;30.63;;;16.50;;
72422;SDS011;60413;55.658;37.498;2022-09-30T16:09:39;32.22;;;16.25;;
72422;SDS011;60413;55.658;37.498;2022-09-30T16:17:31;31.35;;;15.70;;
72422;SDS011;60413;55.658;37.498;2022-09-30T16:20:19;28.88;;;15.63;;
72422;SDS011;60413;55.658;37.498;2022-09-30T16:22:49;39.90;;;16.70;;
72422;SDS011;60413;55.658;37.498;2022-09-30T16:27:56;31.40;;;16.98;;
72422;SDS011;60413;55.658;37.498;2022-09-30T16:30:24;25.60;;;14.82;;
72422;SDS011;60413;55.658;37.498;2022-09-30T16:32:52;30.05;;;14.90;;
72422;SDS011;60413;55.658;37.498;2022-09-30T16:35:23;32.10;;;15.25;;
72422;SDS011;60413;55.658;37.498;2022-09-30T16:37:59;29.02;;;15.50;;
72422;SDS011;60413;55.658;37.498;2022-09-30T16:40:43;32.38;;;16.98;;
72422;SDS011;60413;55.658;37.498;2022-09-30T16:43:10;28.42;;;14.18;;
72422;SDS011;60413;55.658;37.498;2022-09-30T16:45:36;32.65;;;16.85;;
72422;SDS011;60413;55.658;37.498;2022-09-30T16:48:04;29.58;;;15.40;;
72422;SDS011;60413;55.658;37.498;2022-09-30T16:50:40;24.02;;;12.80;;
72422;SDS011;60413;55.658;37.498;2022-09-30T16:53:13;28.03;;;13.40;;
72422;SDS011;60413;55.658;37.498;2022-09-30T16:55:39;20.88;;;11.50;;
72422;SDS011;60413;55.658;37.498;2022-09-30T16:58:05;24.30;;;13.30;;
72422;SDS011;60413;55.658;37.498;2022-09-30T17:00:41;25.42;;;13.40;;
72422;SDS011;60413;55.658;37.498;2022-09-30T17:03:12;24.60;;;13.27;;
72422;SDS011;60413;55.658;37.498;2022-09-30T17:05:46;28.67;;;13.65;;
72422;SDS011;60413;55.658;37.498;2022-09-30T17:08:22;24.20;;;13.73;;
72422;SDS011;60413;55.658;37.498;2022-09-30T17:10:49;30.33;;;14.20;;
72422;SDS011;60413;55.658;37.498;2022-09-30T17:13:16;28.15;;;12.57;;
72422;SDS011;60413;55.658;37.498;2022-09-30T17:15:47;22.45;;;11.70;;
72422;SDS011;60413;55.658;37.498;2022-09-30T17:18:14;26.00;;;12.60;;
72422;SDS011;60413;55.658;37.498;2022-09-30T17:20:42;23.27;;;12.27;;
72422;SDS011;60413;55.658;37.498;2022-09-30T17:23:10;27.33;;;13.45;;
72422;SDS011;60413;55.658;37.498;2022-09-30T17:25:48;24.75;;;13.30;;
72422;SDS011;60413;55.658;37.498;2022-09-30T17:28:15;23.92;;;13.02;;
72422;SDS011;60413;55.658;37.498;2022-09-30T17:30:43;22.73;;;12.60;;
72422;SDS011;60413;55.658;37.498;2022-09-30T17:33:12;26.63;;;13.52;;
72422;SDS011;60413;55.658;37.498;2022-09-30T17:35:44;35.00;;;17.88;;
72422;SDS011;60413;55.658;37.498;2022-09-30T17:38:24;29.73;;;13.00;;
72422;SDS011;60413;55.658;37.498;2022-09-30T17:40:53;21.98;;;13.00;;
72422;SDS011;60413;55.658;37.498;2022-09-30T17:43:39;28.25;;;13.85;;
72422;SDS011;60413;55.658;37.498;2022-09-30T17:46:14;23.55;;;13.32;;
72422;SDS011;60413;55.658;37.498;2022-09-30T17:48:43;23.77;;;13.20;;
72422;SDS011;60413;55.658;37.498;2022-09-30T17:51:11;23.23;;;12.70;;
72422;SDS011;60413;55.658;37.498;2022-09-30T17:53:44;21.73;;;11.43;;
72422;SDS011;60413;55.658;37.498;2022-09-30T17:56:17;24.67;;;12.68;;
72422;SDS011;60413;55.658;37.498;2022-09-30T17:58:47;21.30;;;11.53;;
72422;SDS011;60413;55.658;37.498;2022-09-30T18:01:16;23.65;;;12.52;;
72422;SDS011;60413;55.658;37.498;2022-09-30T18:03:45;25.55;;;13.15;;
72422;SDS011;60413;55.658;37.498;2022-09-30T18:06:12;24.55;;;13.25;;
72422;SDS011;60413;55.658;37.498;2022-09-30T18:08:41;30.85;;;14.82;;
72422;SDS011;60413;55.658;37.498;2022-09-30T18:11:08;32.22;;;15.60;;
72422;SDS011;60413;55.658;37.498;2022-09-30T18:13:36;25.95;;;14.68;;
72422;SDS011;60413;55.658;37.498;2022-09-30T18:16:04;28.05;;;14.82;;
72422;SDS011;60413;55.658;37.498;2022-09-30T18:18:35;23.73;;;13.07;;
72422;SDS011;60413;55.658;37.498;2022-09-30T18:21:01;23.88;;;13.85;;